sensor_id;sensor_type;location;lat;lon;timestamp;pressure;altitude;pressure_sealevel;temperature;humidity
39275;BME280;24980;48.874;2.332;2023-02-18T00:02:17;102397.87;;;23.57;46.75
39275;BME280;24980;48.874;2.332;2023-02-18T00:04:47;102396.19;;;23.58;46.78
39275;BME280;24980;48.874;2.332;2023-02-18T00:07:17;102395.86;;;23.59;46.81
39275;BME280;24980;48.874;2.332;2023-02-18T00:09:47;102395.59;;;23.60;46.86
39275;BME280;24980;48.874;2.332;2023-02-18T00:12:18;102397.89;;;23.61;46.90
39275;BME280;24980;48.874;2.332;2023-02-18T00:14:48;102398.84;;;23.62;46.95
39275;BME280;24980;48.874;2.332;2023-02-18T00:17:19;102394.86;;;23.62;46.98
39275;BME280;24980;48.874;2.332;2023-02-18T00:19:56;102395.70;;;23.64;47.02
39275;BME280;24980;48.874;2.332;2023-02-18T00:22:19;102396.63;;;23.64;47.05
39275;BME280;24980;48.874;2.332;2023-02-18T00:24:50;102393.59;;;23.65;47.08
39275;BME280;24980;48.874;2.332;2023-02-18T00:27:20;102394.45;;;23.66;47.12
39275;BME280;24980;48.874;2.332;2023-02-18T00:29:51;102393.95;;;23.66;47.14
39275;BME280;24980;48.874;2.332;2023-02-18T00:32:21;102395.73;;;23.66;47.18
39275;BME280;24980;48.874;2.332;2023-02-18T00:34:51;102398.75;;;23.67;47.19
39275;BME280;24980;48.874;2.332;2023-02-18T00:37:22;102393.52;;;23.67;47.21
39275;BME280;24980;48.874;2.332;2023-02-18T00:39:53;102398.17;;;23.68;47.23
39275;BME280;24980;48.874;2.332;2023-02-18T00:42:23;102396.15;;;23.68;47.25
39275;BME280;24980;48.874;2.332;2023-02-18T00:44:54;102391.16;;;23.68;47.27
39275;BME280;24980;48.874;2.332;2023-02-18T00:47:24;102387.01;;;23.68;47.28
39275;BME280;24980;48.874;2.332;2023-02-18T00:49:54;102388.52;;;23.68;47.30
39275;BME280;24980;48.874;2.332;2023-02-18T00:54:55;102389.62;;;23.67;47.31
39275;BME280;24980;48.874;2.332;2023-02-18T00:57:25;102388.61;;;23.68;47.31
39275;BME280;24980;48.874;2.332;2023-02-18T00:59:55;102380.39;;;23.68;47.31
39275;BME280;24980;48.874;2.332;2023-02-18T01:02:26;102380.58;;;23.68;47.33
39275;BME280;24980;48.874;2.332;2023-02-18T01:04:56;102380.91;;;23.68;47.34
39275;BME280;24980;48.874;2.332;2023-02-18T01:07:26;102376.59;;;23.68;47.35
39275;BME280;24980;48.874;2.332;2023-02-18T01:09:56;102370.16;;;23.68;47.36
39275;BME280;24980;48.874;2.332;2023-02-18T01:12:27;102365.92;;;23.67;47.38
39275;BME280;24980;48.874;2.332;2023-02-18T01:14:57;102368.72;;;23.68;47.38
39275;BME280;24980;48.874;2.332;2023-02-18T01:17:28;102363.54;;;23.67;47.39
39275;BME280;24980;48.874;2.332;2023-02-18T01:19:58;102366.92;;;23.67;47.40
39275;BME280;24980;48.874;2.332;2023-02-18T01:22:29;102368.19;;;23.67;47.42
39275;BME280;24980;48.874;2.332;2023-02-18T01:24:59;102367.27;;;23.67;47.42
39275;BME280;24980;48.874;2.332;2023-02-18T01:27:30;102368.02;;;23.67;47.44
39275;BME280;24980;48.874;2.332;2023-02-18T01:30:02;102366.70;;;23.66;47.46
39275;BME280;24980;48.874;2.332;2023-02-18T01:32:31;102363.45;;;23.67;47.47
39275;BME280;24980;48.874;2.332;2023-02-18T01:35:03;102358.66;;;23.66;47.49
39275;BME280;24980;48.874;2.332;2023-02-18T01:37:32;102361.34;;;23.67;47.51
39275;BME280;24980;48.874;2.332;2023-02-18T01:40:03;102359.34;;;23.66;47.54
39275;BME280;24980;48.874;2.332;2023-02-18T01:42:37;102359.14;;;23.67;47.54
39275;BME280;24980;48.874;2.332;2023-02-18T01:45:41;102355.44;;;23.66;47.55
39275;BME280;24980;48.874;2.332;2023-02-18T01:47:35;102352.38;;;23.67;47.55
39275;BME280;24980;48.874;2.332;2023-02-18T01:50:06;102346.53;;;23.67;47.55
39275;BME280;24980;48.874;2.332;2023-02-18T01:52:35;102346.53;;;23.68;47.56
39275;BME280;24980;48.874;2.332;2023-02-18T01:55:06;102344.75;;;23.67;47.56
39275;BME280;24980;48.874;2.332;2023-02-18T01:57:37;102342.97;;;23.67;47.57
39275;BME280;24980;48.874;2.332;2023-02-18T02:00:10;102343.98;;;23.67;47.58
39275;BME280;24980;48.874;2.332;2023-02-18T02:02:41;102345.59;;;23.67;47.58
39275;BME280;24980;48.874;2.332;2023-02-18T02:05:09;102344.41;;;23.67;47.60
39275;BME280;24980;48.874;2.332;2023-02-18T02:07:40;102335.86;;;23.67;47.63
39275;BME280;24980;48.874;2.332;2023-02-18T02:10:15;102333.16;;;23.67;47.66
39275;BME280;24980;48.874;2.332;2023-02-18T02:13:10;102331.89;;;23.67;47.72
39275;BME280;24980;48.874;2.332;2023-02-18T02:15:37;102325.47;;;23.69;47.76
39275;BME280;24980;48.874;2.332;2023-02-18T02:18:16;102328.50;;;23.70;47.79
39275;BME280;24980;48.874;2.332;2023-02-18T02:25:25;102315.64;;;23.70;47.79
39275;BME280;24980;48.874;2.332;2023-02-18T02:30:41;102315.21;;;23.70;47.76
39275;BME280;24980;48.874;2.332;2023-02-18T02:33:23;102314.11;;;23.70;47.73
39275;BME280;24980;48.874;2.332;2023-02-18T02:35:22;102310.30;;;23.70;47.70
39275;BME280;24980;48.874;2.332;2023-02-18T02:38:03;102310.39;;;23.70;47.66
39275;BME280;24980;48.874;2.332;2023-02-18T02:40:24;102301.95;;;23.69;47.63
39275;BME280;24980;48.874;2.332;2023-02-18T02:43:11;102304.91;;;23.69;47.61
39275;BME280;24980;48.874;2.332;2023-02-18T02:48:05;102295.33;;;23.68;47.57
39275;BME280;24980;48.874;2.332;2023-02-18T02:50:28;102294.22;;;23.68;47.57
39275;BME280;24980;48.874;2.332;2023-02-18T02:52:53;102289.48;;;23.68;47.55
39275;BME280;24980;48.874;2.332;2023-02-18T02:55:20;102285.92;;;23.68;47.55
39275;BME280;24980;48.874;2.332;2023-02-18T02:57:52;102287.70;;;23.67;47.55
39275;BME280;24980;48.874;2.332;2023-02-18T03:05:49;102287.70;;;23.67;47.51
39275;BME280;24980;48.874;2.332;2023-02-18T03:10:38;102286.34;;;23.67;47.51
39275;BME280;24980;48.874;2.332;2023-02-18T03:18:02;102283.72;;;23.68;47.50
39275;BME280;24980;48.874;2.332;2023-02-18T03:20:40;102277.53;;;23.67;47.49
39275;BME280;24980;48.874;2.332;2023-02-18T03:22:59;102283.80;;;23.67;47.48
39275;BME280;24980;48.874;2.332;2023-02-18T03:25:30;102274.66;;;23.67;47.46
39275;BME280;24980;48.874;2.332;2023-02-18T03:28:02;102277.88;;;23.67;47.46
39275;BME280;24980;48.874;2.332;2023-02-18T03:30:34;102275.70;;;23.66;47.46
39275;BME280;24980;48.874;2.332;2023-02-18T03:33:04;102274.94;;;23.66;47.45
39275;BME280;24980;48.874;2.332;2023-02-18T03:35:30;102270.80;;;23.66;47.44
39275;BME280;24980;48.874;2.332;2023-02-18T03:38:15;102264.52;;;23.66;47.42
39275;BME280;24980;48.874;2.332;2023-02-18T03:40:31;102266.39;;;23.66;47.41
39275;BME280;24980;48.874;2.332;2023-02-18T03:43:01;102268.67;;;23.66;47.40
39275;BME280;24980;48.874;2.332;2023-02-18T03:45:31;102268.93;;;23.66;47.39
39275;BME280;24980;48.874;2.332;2023-02-18T03:48:01;102266.22;;;23.66;47.39
39275;BME280;24980;48.874;2.332;2023-02-18T03:50:35;102269.00;;;23.66;47.38
39275;BME280;24980;48.874;2.332;2023-02-18T03:53:03;102271.02;;;23.67;47.36
39275;BME280;24980;48.874;2.332;2023-02-18T03:55:33;102271.72;;;23.66;47.33
39275;BME280;24980;48.874;2.332;2023-02-18T03:58:04;102269.34;;;23.66;47.32
39275;BME280;24980;48.874;2.332;2023-02-18T04:00:35;102270.02;;;23.66;47.30
39275;BME280;24980;48.874;2.332;2023-02-18T04:03:06;102273.75;;;23.66;47.28
39275;BME280;24980;48.874;2.332;2023-02-18T04:05:36;102269.42;;;23.65;47.25
39275;BME280;24980;48.874;2.332;2023-02-18T04:08:07;102274.00;;;23.65;47.22
39275;BME280;24980;48.874;2.332;2023-02-18T04:10:39;102268.25;;;23.66;47.20
39275;BME280;24980;48.874;2.332;2023-02-18T04:13:08;102272.98;;;23.65;47.17
39275;BME280;24980;48.874;2.332;2023-02-18T04:15:41;102270.36;;;23.66;47.17
39275;BME280;24980;48.874;2.332;2023-02-18T04:18:09;102268.67;;;23.66;47.15
39275;BME280;24980;48.874;2.332;2023-02-18T04:20:39;102269.44;;;23.66;47.13
39275;BME280;24980;48.874;2.332;2023-02-18T04:23:11;102267.05;;;23.67;47.12
39275;BME280;24980;48.874;2.332;2023-02-18T04:25:40;102271.78;;;23.67;47.12
39275;BME280;24980;48.874;2.332;2023-02-18T04:28:13;102269.25;;;23.68;47.14
39275;BME280;24980;48.874;2.332;2023-02-18T04:30:43;102265.12;;;23.69;47.15
39275;BME280;24980;48.874;2.332;2023-02-18T04:33:15;102264.94;;;23.70;47.16
39275;BME280;24980;48.874;2.332;2023-02-18T04:35:43;102268.84;;;23.72;47.16
39275;BME280;24980;48.874;2.332;2023-02-18T04:38:16;102269.45;;;23.72;47.16
39275;BME280;24980;48.874;2.332;2023-02-18T04:40:46;102274.34;;;23.74;47.15
39275;BME280;24980;48.874;2.332;2023-02-18T04:43:15;102269.11;;;23.75;47.14
39275;BME280;24980;48.874;2.332;2023-02-18T04:45:45;102269.87;;;23.75;47.13
39275;BME280;24980;48.874;2.332;2023-02-18T04:48:15;102263.25;;;23.76;47.12
39275;BME280;24980;48.874;2.332;2023-02-18T04:50:46;102260.03;;;23.77;47.10
39275;BME280;24980;48.874;2.332;2023-02-18T04:53:16;102258.77;;;23.77;47.09
39275;BME280;24980;48.874;2.332;2023-02-18T04:55:50;102257.02;;;23.79;47.07
39275;BME280;24980;48.874;2.332;2023-02-18T04:58:17;102253.94;;;23.79;47.02
39275;BME280;24980;48.874;2.332;2023-02-18T05:00:47;102261.83;;;23.80;46.99
39275;BME280;24980;48.874;2.332;2023-02-18T05:03:18;102260.47;;;23.80;46.96
39275;BME280;24980;48.874;2.332;2023-02-18T05:05:48;102264.97;;;23.82;46.93
39275;BME280;24980;48.874;2.332;2023-02-18T05:08:18;102265.70;;;23.82;46.92
39275;BME280;24980;48.874;2.332;2023-02-18T05:10:49;102264.80;;;23.84;46.90
39275;BME280;24980;48.874;2.332;2023-02-18T05:13:19;102268.19;;;23.85;46.88
39275;BME280;24980;48.874;2.332;2023-02-18T05:15:52;102267.27;;;23.85;46.87
39275;BME280;24980;48.874;2.332;2023-02-18T05:18:21;102267.18;;;23.85;46.84
39275;BME280;24980;48.874;2.332;2023-02-18T05:20:53;102275.54;;;23.86;46.83
39275;BME280;24980;48.874;2.332;2023-02-18T05:23:21;102272.32;;;23.86;46.79
39275;BME280;24980;48.874;2.332;2023-02-18T05:25:53;102271.57;;;23.87;46.78
39275;BME280;24980;48.874;2.332;2023-02-18T05:28:23;102276.33;;;23.88;46.78
39275;BME280;24980;48.874;2.332;2023-02-18T05:30:52;102275.40;;;23.88;46.77
39275;BME280;24980;48.874;2.332;2023-02-18T05:33:23;102274.86;;;23.89;46.77
39275;BME280;24980;48.874;2.332;2023-02-18T05:35:54;102274.28;;;23.90;46.76
39275;BME280;24980;48.874;2.332;2023-02-18T05:38:24;102272.34;;;23.91;46.74
39275;BME280;24980;48.874;2.332;2023-02-18T05:40:55;102271.41;;;23.91;46.74
39275;BME280;24980;48.874;2.332;2023-02-18T05:43:28;102268.96;;;23.91;46.74
39275;BME280;24980;48.874;2.332;2023-02-18T05:45:57;102267.27;;;23.92;46.73
39275;BME280;24980;48.874;2.332;2023-02-18T05:48:27;102265.92;;;23.92;46.73
39275;BME280;24980;48.874;2.332;2023-02-18T05:51:00;102269.39;;;23.92;46.72
39275;BME280;24980;48.874;2.332;2023-02-18T05:53:28;102267.59;;;23.93;46.70
39275;BME280;24980;48.874;2.332;2023-02-18T05:55:58;102273.19;;;23.94;46.68
39275;BME280;24980;48.874;2.332;2023-02-18T05:58:30;102270.48;;;23.94;46.67
39275;BME280;24980;48.874;2.332;2023-02-18T06:01:00;102264.66;;;23.95;46.66
39275;BME280;24980;48.874;2.332;2023-02-18T06:03:31;102262.70;;;23.95;46.66
39275;BME280;24980;48.874;2.332;2023-02-18T06:06:02;102259.29;;;23.96;46.63
39275;BME280;24980;48.874;2.332;2023-02-18T06:08:32;102261.41;;;23.96;46.61
39275;BME280;24980;48.874;2.332;2023-02-18T06:11:02;102259.38;;;23.96;46.61
39275;BME280;24980;48.874;2.332;2023-02-18T06:13:32;102262.94;;;23.96;46.60
39275;BME280;24980;48.874;2.332;2023-02-18T06:16:03;102261.58;;;23.96;46.60
39275;BME280;24980;48.874;2.332;2023-02-18T06:18:33;102262.86;;;23.97;46.59
39275;BME280;24980;48.874;2.332;2023-02-18T06:21:03;102263.55;;;23.98;46.58
39275;BME280;24980;48.874;2.332;2023-02-18T06:23:33;102262.11;;;23.98;46.57
39275;BME280;24980;48.874;2.332;2023-02-18T06:26:04;102260.50;;;23.98;46.56
39275;BME280;24980;48.874;2.332;2023-02-18T06:28:36;102263.72;;;23.98;46.56
39275;BME280;24980;48.874;2.332;2023-02-18T06:31:06;102257.62;;;23.98;46.55
39275;BME280;24980;48.874;2.332;2023-02-18T06:33:37;102262.53;;;23.98;46.55
39275;BME280;24980;48.874;2.332;2023-02-18T06:36:10;102260.16;;;23.98;46.56
39275;BME280;24980;48.874;2.332;2023-02-18T06:38:43;102255.42;;;23.98;46.58
39275;BME280;24980;48.874;2.332;2023-02-18T06:41:10;102257.02;;;24.00;46.63
39275;BME280;24980;48.874;2.332;2023-02-18T06:43:40;102252.28;;;24.00;46.68
39275;BME280;24980;48.874;2.332;2023-02-18T06:46:10;102246.53;;;24.01;46.72
39275;BME280;24980;48.874;2.332;2023-02-18T06:48:40;102253.37;;;24.02;46.73
39275;BME280;24980;48.874;2.332;2023-02-18T06:51:11;102253.70;;;24.02;46.72
39275;BME280;24980;48.874;2.332;2023-02-18T06:53:42;102256.75;;;24.02;46.71
39275;BME280;24980;48.874;2.332;2023-02-18T06:56:13;102262.86;;;24.03;46.69
39275;BME280;24980;48.874;2.332;2023-02-18T06:58:42;102259.30;;;24.02;46.66
39275;BME280;24980;48.874;2.332;2023-02-18T07:01:12;102256.08;;;24.03;46.64
39275;BME280;24980;48.874;2.332;2023-02-18T07:06:12;102254.80;;;24.02;46.59
39275;BME280;24980;48.874;2.332;2023-02-18T07:08:43;102259.58;;;24.01;46.59
39275;BME280;24980;48.874;2.332;2023-02-18T07:11:13;102257.59;;;24.02;46.59
39275;BME280;24980;48.874;2.332;2023-02-18T07:13:44;102262.09;;;24.02;46.59
39275;BME280;24980;48.874;2.332;2023-02-18T07:16:16;102256.84;;;24.02;46.59
39275;BME280;24980;48.874;2.332;2023-02-18T07:18:45;102252.85;;;24.02;46.59
39275;BME280;24980;48.874;2.332;2023-02-18T07:21:16;102246.86;;;24.00;46.58
39275;BME280;24980;48.874;2.332;2023-02-18T07:23:46;102255.50;;;24.00;46.57
39275;BME280;24980;48.874;2.332;2023-02-18T07:26:17;102263.29;;;24.00;46.56
39275;BME280;24980;48.874;2.332;2023-02-18T07:28:48;102264.55;;;23.99;46.55
39275;BME280;24980;48.874;2.332;2023-02-18T07:31:18;102268.53;;;23.99;46.54
39275;BME280;24980;48.874;2.332;2023-02-18T07:33:48;102266.77;;;23.98;46.55
39275;BME280;24980;48.874;2.332;2023-02-18T07:36:18;102262.20;;;23.98;46.52
39275;BME280;24980;48.874;2.332;2023-02-18T07:38:49;102259.82;;;23.98;46.51
39275;BME280;24980;48.874;2.332;2023-02-18T07:41:21;102259.23;;;23.98;46.51
39275;BME280;24980;48.874;2.332;2023-02-18T07:43:49;102258.80;;;23.98;46.51
39275;BME280;24980;48.874;2.332;2023-02-18T07:46:20;102257.36;;;23.97;46.50
39275;BME280;24980;48.874;2.332;2023-02-18T07:48:50;102265.59;;;23.98;46.49
39275;BME280;24980;48.874;2.332;2023-02-18T07:51:21;102263.89;;;23.98;46.48
39275;BME280;24980;48.874;2.332;2023-02-18T07:53:51;102262.44;;;23.97;46.47
39275;BME280;24980;48.874;2.332;2023-02-18T07:56:22;102268.55;;;23.97;46.46
39275;BME280;24980;48.874;2.332;2023-02-18T07:58:52;102266.58;;;23.97;46.44
39275;BME280;24980;48.874;2.332;2023-02-18T08:01:23;102268.19;;;23.96;46.44
39275;BME280;24980;48.874;2.332;2023-02-18T08:03:53;102265.91;;;23.96;46.44
39275;BME280;24980;48.874;2.332;2023-02-18T08:06:36;102272.24;;;23.96;46.44
39275;BME280;24980;48.874;2.332;2023-02-18T08:08:54;102274.05;;;23.95;46.44
39275;BME280;24980;48.874;2.332;2023-02-18T08:11:26;102275.41;;;23.95;46.44
39275;BME280;24980;48.874;2.332;2023-02-18T08:13:56;102278.11;;;23.94;46.43
39275;BME280;24980;48.874;2.332;2023-02-18T08:16:26;102275.99;;;23.94;46.42
39275;BME280;24980;48.874;2.332;2023-02-18T08:18:58;102282.08;;;23.94;46.41
39275;BME280;24980;48.874;2.332;2023-02-18T08:21:27;102285.89;;;23.93;46.39
39275;BME280;24980;48.874;2.332;2023-02-18T08:23:58;102281.73;;;23.93;46.39
39275;BME280;24980;48.874;2.332;2023-02-18T08:26:31;102287.23;;;23.93;46.38
39275;BME280;24980;48.874;2.332;2023-02-18T08:29:02;102291.12;;;23.93;46.37
39275;BME280;24980;48.874;2.332;2023-02-18T08:31:30;102292.65;;;23.92;46.37
39275;BME280;24980;48.874;2.332;2023-02-18T08:34:00;102295.05;;;23.92;46.35
39275;BME280;24980;48.874;2.332;2023-02-18T08:36:30;102295.30;;;23.91;46.35
39275;BME280;24980;48.874;2.332;2023-02-18T08:39:01;102291.66;;;23.91;46.35
39275;BME280;24980;48.874;2.332;2023-02-18T08:41:32;102296.48;;;23.91;46.34
39275;BME280;24980;48.874;2.332;2023-02-18T08:44:03;102292.32;;;23.90;46.34
39275;BME280;24980;48.874;2.332;2023-02-18T08:46:34;102299.02;;;23.90;46.34
39275;BME280;24980;48.874;2.332;2023-02-18T08:49:03;102299.34;;;23.90;46.35
39275;BME280;24980;48.874;2.332;2023-02-18T08:51:37;102298.67;;;23.90;46.36
39275;BME280;24980;48.874;2.332;2023-02-18T08:54:05;102298.16;;;23.90;46.39
39275;BME280;24980;48.874;2.332;2023-02-18T08:56:35;102300.11;;;23.89;46.46
39275;BME280;24980;48.874;2.332;2023-02-18T08:59:06;102297.48;;;23.90;46.52
39275;BME280;24980;48.874;2.332;2023-02-18T09:01:36;102299.70;;;23.91;46.55
39275;BME280;24980;48.874;2.332;2023-02-18T09:04:07;102298.67;;;23.90;46.54
39275;BME280;24980;48.874;2.332;2023-02-18T09:06:37;102292.83;;;23.91;46.50
39275;BME280;24980;48.874;2.332;2023-02-18T09:09:08;102292.40;;;23.90;46.48
39275;BME280;24980;48.874;2.332;2023-02-18T09:11:41;102298.57;;;23.89;46.45
39275;BME280;24980;48.874;2.332;2023-02-18T09:14:09;102289.43;;;23.89;46.42
39275;BME280;24980;48.874;2.332;2023-02-18T09:16:40;102298.60;;;23.88;46.39
39275;BME280;24980;48.874;2.332;2023-02-18T09:19:12;102303.16;;;23.87;46.37
39275;BME280;24980;48.874;2.332;2023-02-18T09:21:40;102304.60;;;23.88;46.33
39275;BME280;24980;48.874;2.332;2023-02-18T09:24:10;102308.00;;;23.88;46.33
39275;BME280;24980;48.874;2.332;2023-02-18T09:26:40;102309.94;;;23.87;46.32
39275;BME280;24980;48.874;2.332;2023-02-18T09:29:11;102307.48;;;23.87;46.31
39275;BME280;24980;48.874;2.332;2023-02-18T09:31:41;102317.62;;;23.86;46.32
39275;BME280;24980;48.874;2.332;2023-02-18T09:34:12;102313.90;;;23.86;46.31
39275;BME280;24980;48.874;2.332;2023-02-18T09:36:42;102308.42;;;23.85;46.31
39275;BME280;24980;48.874;2.332;2023-02-18T09:39:13;102311.62;;;23.85;46.30
39275;BME280;24980;48.874;2.332;2023-02-18T09:41:46;102311.11;;;23.84;46.29
39275;BME280;24980;48.874;2.332;2023-02-18T09:44:21;102312.12;;;23.84;46.28
39275;BME280;24980;48.874;2.332;2023-02-18T09:46:50;102316.34;;;23.82;46.28
39275;BME280;24980;48.874;2.332;2023-02-18T09:49:20;102313.41;;;23.82;46.27
39275;BME280;24980;48.874;2.332;2023-02-18T09:51:46;102316.28;;;23.82;46.26
39275;BME280;24980;48.874;2.332;2023-02-18T09:54:17;102314.49;;;23.81;46.25
39275;BME280;24980;48.874;2.332;2023-02-18T09:56:46;102315.34;;;23.81;46.25
39275;BME280;24980;48.874;2.332;2023-02-18T09:59:18;102319.49;;;23.81;46.25
39275;BME280;24980;48.874;2.332;2023-02-18T10:01:50;102321.34;;;23.81;46.24
39275;BME280;24980;48.874;2.332;2023-02-18T10:04:22;102322.44;;;23.80;46.24
39275;BME280;24980;48.874;2.332;2023-02-18T10:06:48;102321.44;;;23.79;46.22
39275;BME280;24980;48.874;2.332;2023-02-18T10:09:21;102324.83;;;23.79;46.22
39275;BME280;24980;48.874;2.332;2023-02-18T10:11:57;102325.33;;;23.78;46.22
39275;BME280;24980;48.874;2.332;2023-02-18T10:14:19;102331.17;;;23.79;46.22
39275;BME280;24980;48.874;2.332;2023-02-18T10:16:53;102333.11;;;23.78;46.21
39275;BME280;24980;48.874;2.332;2023-02-18T10:19:27;102331.52;;;23.79;46.20
39275;BME280;24980;48.874;2.332;2023-02-18T10:21:52;102330.66;;;23.78;46.20
39275;BME280;24980;48.874;2.332;2023-02-18T10:24:29;102329.05;;;23.78;46.19
39275;BME280;24980;48.874;2.332;2023-02-18T10:26:52;102325.16;;;23.78;46.17
39275;BME280;24980;48.874;2.332;2023-02-18T10:29:23;102326.69;;;23.78;46.17
39275;BME280;24980;48.874;2.332;2023-02-18T10:31:56;102330.08;;;23.78;46.15
39275;BME280;24980;48.874;2.332;2023-02-18T10:34:47;102330.99;;;23.78;46.14
39275;BME280;24980;48.874;2.332;2023-02-18T10:37:15;102331.57;;;23.76;46.14
39275;BME280;24980;48.874;2.332;2023-02-18T10:44:57;102337.42;;;23.75;46.12
39275;BME280;24980;48.874;2.332;2023-02-18T10:47:14;102336.08;;;23.75;46.12
39275;BME280;24980;48.874;2.332;2023-02-18T10:52:01;102331.23;;;23.74;46.09
39275;BME280;24980;48.874;2.332;2023-02-18T10:57:00;102334.11;;;23.73;46.07
39275;BME280;24980;48.874;2.332;2023-02-18T10:59:33;102326.73;;;23.74;46.06
39275;BME280;24980;48.874;2.332;2023-02-18T11:02:13;102333.34;;;23.74;46.04
39275;BME280;24980;48.874;2.332;2023-02-18T11:04:39;102327.83;;;23.73;46.04
39275;BME280;24980;48.874;2.332;2023-02-18T11:07:20;102337.34;;;23.72;46.03
39275;BME280;24980;48.874;2.332;2023-02-18T11:09:54;102331.73;;;23.73;46.01
39275;BME280;24980;48.874;2.332;2023-02-18T11:12:05;102333.53;;;23.73;46.03
39275;BME280;24980;48.874;2.332;2023-02-18T11:14:43;102334.95;;;23.73;46.05
39275;BME280;24980;48.874;2.332;2023-02-18T11:17:15;102333.85;;;23.74;46.10
39275;BME280;24980;48.874;2.332;2023-02-18T11:19:37;102332.09;;;23.74;46.14
39275;BME280;24980;48.874;2.332;2023-02-18T11:22:19;102339.28;;;23.74;46.15
39275;BME280;24980;48.874;2.332;2023-02-18T11:24:38;102329.88;;;23.74;46.13
39275;BME280;24980;48.874;2.332;2023-02-18T11:27:20;102327.34;;;23.74;46.12
39275;BME280;24980;48.874;2.332;2023-02-18T11:29:39;102332.00;;;23.74;46.09
39275;BME280;24980;48.874;2.332;2023-02-18T11:32:13;102334.19;;;23.73;46.09
39275;BME280;24980;48.874;2.332;2023-02-18T11:34:41;102328.62;;;23.73;46.06
39275;BME280;24980;48.874;2.332;2023-02-18T11:37:12;102330.80;;;23.73;46.04
39275;BME280;24980;48.874;2.332;2023-02-18T11:39:42;102328.18;;;23.73;46.01
39275;BME280;24980;48.874;2.332;2023-02-18T11:42:12;102323.77;;;23.73;45.99
39275;BME280;24980;48.874;2.332;2023-02-18T11:45:00;102323.97;;;23.72;45.97
39275;BME280;24980;48.874;2.332;2023-02-18T11:47:21;102321.67;;;23.72;45.95
39275;BME280;24980;48.874;2.332;2023-02-18T11:49:44;102316.86;;;23.72;45.94
39275;BME280;24980;48.874;2.332;2023-02-18T11:52:19;102316.59;;;23.71;45.92
39275;BME280;24980;48.874;2.332;2023-02-18T11:54:41;102315.82;;;23.71;45.91
39275;BME280;24980;48.874;2.332;2023-02-18T11:57:13;102317.25;;;23.71;45.90
39275;BME280;24980;48.874;2.332;2023-02-18T11:59:42;102313.95;;;23.71;45.89
39275;BME280;24980;48.874;2.332;2023-02-18T12:02:24;102313.36;;;23.71;45.88
39275;BME280;24980;48.874;2.332;2023-02-18T12:04:49;102311.92;;;23.70;45.87
39275;BME280;24980;48.874;2.332;2023-02-18T12:07:22;102311.59;;;23.69;45.86
39275;BME280;24980;48.874;2.332;2023-02-18T12:09:48;102311.66;;;23.70;45.85
39275;BME280;24980;48.874;2.332;2023-02-18T12:12:31;102304.71;;;23.70;45.84
39275;BME280;24980;48.874;2.332;2023-02-18T12:14:45;102305.67;;;23.69;45.83
39275;BME280;24980;48.874;2.332;2023-02-18T12:17:30;102297.88;;;23.69;45.81
39275;BME280;24980;48.874;2.332;2023-02-18T12:20:02;102292.81;;;23.69;45.80
39275;BME280;24980;48.874;2.332;2023-02-18T12:22:33;102296.02;;;23.69;45.79
39275;BME280;24980;48.874;2.332;2023-02-18T12:25:21;102286.95;;;23.68;45.77
39275;BME280;24980;48.874;2.332;2023-02-18T12:32:34;102283.16;;;23.69;45.74
39275;BME280;24980;48.874;2.332;2023-02-18T12:37:42;102278.07;;;23.69;45.72
39275;BME280;24980;48.874;2.332;2023-02-18T12:42:43;102268.94;;;23.69;45.71
39275;BME280;24980;48.874;2.332;2023-02-18T12:45:19;102269.01;;;23.69;45.71
39275;BME280;24980;48.874;2.332;2023-02-18T12:50:08;102261.05;;;23.69;45.70
39275;BME280;24980;48.874;2.332;2023-02-18T13:02:59;102259.26;;;23.67;45.71
39275;BME280;24980;48.874;2.332;2023-02-18T13:12:42;102246.14;;;23.65;45.70
39275;BME280;24980;48.874;2.332;2023-02-18T13:15:02;102243.77;;;23.65;45.70
39275;BME280;24980;48.874;2.332;2023-02-18T13:17:35;102246.57;;;23.65;45.70
39275;BME280;24980;48.874;2.332;2023-02-18T13:20:03;102237.50;;;23.65;45.69
39275;BME280;24980;48.874;2.332;2023-02-18T13:22:30;102239.96;;;23.65;45.70
39275;BME280;24980;48.874;2.332;2023-02-18T13:25:00;102233.59;;;23.63;45.71
39275;BME280;24980;48.874;2.332;2023-02-18T13:27:38;102229.98;;;23.63;45.72
39275;BME280;24980;48.874;2.332;2023-02-18T13:32:42;102234.55;;;23.63;45.82
39275;BME280;24980;48.874;2.332;2023-02-18T13:35:18;102234.55;;;23.63;45.87
39275;BME280;24980;48.874;2.332;2023-02-18T13:40:05;102239.63;;;23.63;45.88
39275;BME280;24980;48.874;2.332;2023-02-18T13:42:36;102240.81;;;23.62;45.87
39275;BME280;24980;48.874;2.332;2023-02-18T13:45:14;102238.27;;;23.62;45.85
39275;BME280;24980;48.874;2.332;2023-02-18T13:47:43;102235.98;;;23.61;45.82
39275;BME280;24980;48.874;2.332;2023-02-18T13:50:26;102230.21;;;23.60;45.81
39275;BME280;24980;48.874;2.332;2023-02-18T13:52:37;102227.69;;;23.59;45.79
39275;BME280;24980;48.874;2.332;2023-02-18T13:55:21;102225.32;;;23.59;45.75
39275;BME280;24980;48.874;2.332;2023-02-18T13:57:38;102224.21;;;23.59;45.74
39275;BME280;24980;48.874;2.332;2023-02-18T14:00:24;102221.33;;;23.58;45.73
39275;BME280;24980;48.874;2.332;2023-02-18T14:02:55;102217.68;;;23.57;45.72
39275;BME280;24980;48.874;2.332;2023-02-18T14:05:22;102216.91;;;23.57;45.70
39275;BME280;24980;48.874;2.332;2023-02-18T14:10:25;102208.30;;;23.56;45.68
39275;BME280;24980;48.874;2.332;2023-02-18T14:12:42;102206.43;;;23.55;45.67
39275;BME280;24980;48.874;2.332;2023-02-18T14:17:43;102199.48;;;23.54;45.66
39275;BME280;24980;48.874;2.332;2023-02-18T14:22:46;102197.64;;;23.53;45.66
39275;BME280;24980;48.874;2.332;2023-02-18T14:25:26;102199.66;;;23.53;45.66
39275;BME280;24980;48.874;2.332;2023-02-18T14:27:44;102194.24;;;23.52;45.66